createdAt,value
2019-05-21T00:01:58.103Z,65.35
2019-05-21T00:04:30.129Z,65.33
2019-05-21T00:07:03.452Z,65.38
2019-05-21T00:09:40.979Z,65.41
2019-05-21T00:12:13.465Z,65.42
2019-05-21T00:14:48.388Z,65.44
2019-05-21T00:17:21.371Z,65.44
2019-05-21T00:19:58.638Z,65.49
2019-05-21T00:22:31.871Z,65.50
2019-05-21T00:25:04.315Z,65.51
2019-05-21T00:27:35.988Z,65.52
2019-05-21T00:31:01.700Z,65.54
2019-05-21T00:34:41.801Z,65.56
2019-05-21T00:37:55.716Z,65.54
2019-05-21T00:41:21.552Z,65.54
2019-05-21T00:43:59.679Z,65.56
2019-05-21T00:46:31.450Z,65.56
2019-05-21T00:49:03.395Z,65.61
2019-05-21T00:51:35.144Z,65.64
2019-05-21T00:54:06.890Z,65.66
2019-05-21T00:56:40.125Z,65.71
2019-05-21T00:59:12.072Z,65.73
2019-05-21T01:01:43.991Z,65.73
2019-05-21T01:04:17.480Z,65.74
2019-05-21T01:06:49.431Z,65.71
2019-05-21T01:09:21.152Z,65.72
2019-05-21T01:11:55.077Z,65.73
2019-05-21T01:14:28.005Z,65.75
2019-05-21T01:17:00.169Z,65.74
2019-05-21T01:19:32.167Z,65.72
2019-05-21T01:22:04.195Z,65.69
2019-05-21T01:24:35.839Z,65.68
2019-05-21T01:27:07.597Z,65.64
2019-05-21T01:29:39.682Z,65.62
2019-05-21T01:32:12.094Z,65.62
2019-05-21T01:34:45.395Z,65.60
2019-05-21T01:37:17.264Z,65.63
2019-05-21T01:39:50.268Z,65.64
2019-05-21T01:42:22.448Z,65.67
2019-05-21T01:44:54.352Z,65.66
2019-05-21T01:47:26.637Z,65.66
2019-05-21T01:49:58.870Z,65.72
2019-05-21T01:52:30.606Z,65.74
2019-05-21T01:55:02.229Z,65.73
2019-05-21T01:57:33.904Z,65.73
2019-05-21T02:00:06.395Z,65.71
2019-05-21T02:02:38.694Z,65.72
2019-05-21T02:05:10.567Z,65.69
2019-05-21T02:07:42.227Z,65.68
2019-05-21T02:10:14.079Z,65.68
2019-05-21T02:12:45.734Z,65.67
2019-05-21T02:15:17.734Z,65.69
2019-05-21T02:17:49.958Z,65.69
2019-05-21T02:20:21.945Z,65.68
2019-05-21T02:22:53.765Z,65.67
2019-05-21T02:25:25.462Z,65.67
2019-05-21T02:27:57.239Z,65.65
2019-05-21T02:30:30.304Z,65.66
2019-05-21T02:33:02.865Z,65.67
2019-05-21T02:35:52.973Z,65.68
2019-05-21T02:38:08.214Z,65.66
2019-05-21T02:40:39.871Z,65.66
2019-05-21T02:43:11.608Z,65.62
2019-05-21T02:45:43.323Z,65.64
2019-05-21T02:48:16.281Z,65.62
2019-05-21T02:50:48.424Z,65.65
2019-05-21T02:53:20.114Z,65.63
2019-05-21T02:55:51.779Z,65.62
2019-05-21T02:58:23.682Z,65.62
2019-05-21T03:01:26.539Z,65.60
2019-05-21T03:03:59.025Z,65.59
2019-05-21T03:06:30.669Z,65.64
2019-05-21T03:09:02.660Z,65.63
2019-05-21T03:11:34.364Z,65.63
2019-05-21T03:14:06.003Z,65.62
2019-05-21T03:16:38.113Z,65.65
2019-05-21T03:19:10.462Z,65.67
2019-05-21T03:21:42.444Z,65.70
2019-05-21T03:24:14.385Z,65.68
2019-05-21T03:26:46.262Z,65.73
2019-05-21T03:29:17.940Z,65.71
2019-05-21T03:31:49.594Z,65.72
2019-05-21T03:34:22.238Z,65.73
2019-05-21T03:36:54.178Z,65.71
2019-05-21T03:39:25.831Z,65.67
2019-05-21T03:41:57.687Z,65.66
2019-05-21T03:44:29.541Z,65.67
2019-05-21T03:47:01.205Z,65.68
2019-05-21T03:49:33.267Z,65.70
2019-05-21T03:52:05.319Z,65.70
2019-05-21T03:54:37.094Z,65.66
2019-05-21T03:57:08.738Z,65.66
2019-05-21T03:59:40.990Z,65.68
2019-05-21T04:02:12.667Z,65.70
2019-05-21T04:04:45.012Z,65.72
2019-05-21T04:07:16.684Z,65.72
2019-05-21T04:09:48.336Z,65.74
2019-05-21T04:12:19.988Z,65.76
2019-05-21T04:14:55.833Z,65.76
2019-05-21T04:17:37.531Z,65.75
2019-05-21T04:20:10.842Z,65.77
2019-05-21T04:23:01.524Z,65.78
2019-05-21T04:25:34.295Z,65.82
2019-05-21T04:28:06.310Z,65.86
2019-05-21T04:30:38.488Z,65.90
2019-05-21T04:33:10.232Z,65.91
2019-05-21T04:35:42.453Z,65.92
2019-05-21T04:38:14.246Z,65.92
2019-05-21T04:40:46.253Z,65.93
2019-05-21T04:43:17.977Z,65.95
2019-05-21T04:45:49.795Z,65.94
2019-05-21T04:48:21.865Z,65.94
2019-05-21T04:50:54.493Z,65.98
2019-05-21T04:53:26.205Z,65.99
2019-05-21T04:55:58.179Z,66.02
2019-05-21T04:58:30.413Z,66.06
2019-05-21T05:01:02.293Z,66.09
2019-05-21T05:03:33.972Z,66.10
2019-05-21T05:06:06.615Z,66.12
2019-05-21T05:08:38.318Z,66.13
2019-05-21T05:11:10.063Z,66.21
2019-05-21T05:13:41.727Z,66.22
2019-05-21T05:16:13.479Z,66.26
2019-05-21T05:18:45.171Z,66.33
2019-05-21T05:21:16.872Z,66.41
2019-05-21T05:23:49.267Z,66.49
2019-05-21T05:26:21.066Z,66.56
2019-05-21T05:28:52.712Z,66.62
2019-05-21T05:31:24.365Z,66.65
2019-05-21T05:33:56.574Z,66.67
2019-05-21T05:36:28.646Z,66.71
2019-05-21T05:39:00.987Z,66.77
2019-05-21T05:41:32.859Z,66.78
2019-05-21T05:44:04.608Z,66.81
2019-05-21T05:46:36.379Z,66.85
2019-05-21T05:49:14.182Z,66.87
2019-05-21T05:51:45.868Z,66.92
2019-05-21T05:54:18.359Z,67.00
2019-05-21T05:56:50.066Z,67.17
2019-05-21T05:59:21.827Z,67.25
2019-05-21T06:01:53.772Z,67.34
2019-05-21T06:04:25.477Z,67.36
2019-05-21T06:06:57.204Z,67.48
2019-05-21T06:09:29.498Z,67.47
2019-05-21T06:12:01.154Z,67.54
2019-05-21T06:14:32.963Z,67.66
2019-05-21T06:17:04.769Z,67.67
2019-05-21T06:19:36.658Z,67.72
2019-05-21T06:22:08.323Z,67.75
2019-05-21T06:24:41.043Z,67.70
2019-05-21T06:27:12.782Z,67.69
2019-05-21T06:29:44.679Z,67.68
2019-05-21T06:32:16.736Z,67.71
2019-05-21T06:34:48.843Z,67.79
2019-05-21T06:37:21.189Z,67.90
2019-05-21T06:39:53.515Z,68.01
2019-05-21T06:42:25.411Z,68.12
2019-05-21T06:44:57.197Z,68.18
2019-05-21T06:47:28.841Z,68.32
2019-05-21T06:50:00.868Z,68.30
2019-05-21T06:52:32.579Z,68.31
2019-05-21T06:55:04.935Z,68.35
2019-05-21T06:57:36.662Z,68.35
2019-05-21T07:00:08.931Z,68.34
2019-05-21T07:02:40.755Z,68.36
2019-05-21T07:05:12.750Z,68.36
2019-05-21T07:07:44.489Z,68.36
2019-05-21T07:10:18.592Z,68.39
2019-05-21T07:12:50.306Z,68.48
2019-05-21T07:15:22.722Z,68.53
2019-05-21T07:17:54.581Z,68.58
2019-05-21T07:20:26.721Z,68.63
2019-05-21T07:22:58.773Z,68.68
2019-05-21T07:25:31.441Z,68.81
2019-05-21T07:28:03.166Z,68.82
2019-05-21T07:30:35.238Z,68.88
2019-05-21T07:33:07.513Z,68.95
2019-05-21T07:35:39.664Z,69.00
2019-05-21T07:38:11.695Z,68.99
2019-05-21T07:40:43.429Z,69.02
2019-05-21T07:43:15.609Z,69.02
2019-05-21T07:45:47.373Z,69.05
2019-05-21T07:48:19.324Z,69.07
2019-05-21T07:50:51.440Z,69.06
2019-05-21T07:53:23.185Z,69.06
2019-05-21T07:55:54.866Z,69.06
2019-05-21T07:58:27.472Z,69.12
2019-05-21T08:01:01.135Z,69.14
2019-05-21T08:03:32.621Z,69.17
2019-05-21T08:06:04.318Z,69.20
2019-05-21T08:08:37.594Z,69.21
2019-05-21T08:11:09.610Z,69.25
2019-05-21T08:13:41.985Z,69.27
2019-05-21T08:16:13.850Z,69.26
2019-05-21T08:18:45.942Z,69.40
2019-05-21T08:21:17.902Z,69.32
2019-05-21T08:23:51.092Z,69.39
2019-05-21T08:26:22.842Z,69.43
2019-05-21T08:28:55.272Z,69.49
2019-05-21T08:31:27.102Z,69.57
2019-05-21T08:33:58.915Z,69.62
2019-05-21T08:36:30.627Z,69.65
2019-05-21T08:39:02.467Z,69.76
2019-05-21T08:41:34.553Z,69.82
2019-05-21T08:44:07.122Z,69.84
2019-05-21T08:46:38.899Z,69.91
2019-05-21T08:49:10.780Z,69.92
2019-05-21T08:51:42.851Z,69.91
2019-05-21T08:54:16.274Z,69.94
2019-05-21T08:56:48.377Z,69.97
2019-05-21T08:59:21.198Z,70.03
2019-05-21T09:01:52.889Z,70.07
2019-05-21T09:04:43.626Z,70.10
2019-05-21T09:06:58.125Z,70.12
2019-05-21T09:09:48.243Z,70.16
2019-05-21T09:12:03.329Z,70.12
2019-05-21T09:14:36.039Z,70.15
2019-05-21T09:17:07.716Z,70.21
2019-05-21T09:19:39.674Z,70.28
2019-05-21T09:22:11.583Z,70.29
2019-05-21T09:24:43.278Z,70.35
2019-05-21T09:27:14.996Z,70.37
2019-05-21T09:29:47.741Z,70.35
2019-05-21T09:32:21.204Z,70.37
2019-05-21T09:34:53.535Z,70.37
2019-05-21T09:37:25.519Z,70.43
2019-05-21T09:39:57.676Z,70.45
2019-05-21T09:42:31.730Z,70.46
2019-05-21T09:45:05.879Z,70.47
2019-05-21T09:47:37.479Z,70.48
2019-05-21T09:50:09.481Z,70.50
2019-05-21T09:52:41.452Z,70.63
2019-05-21T09:55:13.761Z,70.65
2019-05-21T09:58:07.376Z,70.71
2019-05-21T10:01:04.437Z,70.80
2019-05-21T10:03:39.485Z,70.79
2019-05-21T10:06:11.158Z,70.83
2019-05-21T10:08:42.980Z,70.85
2019-05-21T10:11:14.935Z,70.88
2019-05-21T10:13:46.649Z,70.90
2019-05-21T10:16:20.690Z,70.86
2019-05-21T10:18:52.554Z,70.90
2019-05-21T10:21:24.906Z,70.87
2019-05-21T10:23:56.739Z,70.88
2019-05-21T10:26:28.648Z,70.91
2019-05-21T10:29:00.294Z,70.96
2019-05-21T10:31:32.705Z,70.96
2019-05-21T10:34:07.327Z,70.95
2019-05-21T10:36:39.008Z,70.92
2019-05-21T10:39:11.100Z,70.94
2019-05-21T10:41:45.949Z,70.93
2019-05-21T10:44:16.178Z,70.91
2019-05-21T10:46:48.784Z,70.92
2019-05-21T10:49:20.527Z,70.90
2019-05-21T10:51:52.418Z,70.82
2019-05-21T10:54:24.340Z,70.80
2019-05-21T10:56:56.052Z,70.76
2019-05-21T10:59:27.868Z,70.79
2019-05-21T11:02:17.386Z,70.72
2019-05-21T11:05:00.558Z,70.68
2019-05-21T11:07:32.445Z,70.62
2019-05-21T11:10:04.559Z,70.52
2019-05-21T11:12:36.808Z,70.39
2019-05-21T11:15:09.725Z,70.33
2019-05-21T11:17:58.952Z,70.31
2019-05-21T11:20:17.267Z,70.27
2019-05-21T11:22:49.428Z,70.19
2019-05-21T11:25:21.443Z,70.16
2019-05-21T11:27:53.841Z,70.09
2019-05-21T11:30:25.674Z,70.09
2019-05-21T11:32:58.173Z,70.06
2019-05-21T11:35:30.370Z,70.01
2019-05-21T11:38:02.244Z,70.00
2019-05-21T11:40:34.294Z,69.95
2019-05-21T11:43:06.249Z,69.96
2019-05-21T11:45:39.749Z,69.96
2019-05-21T11:48:12.868Z,69.89
2019-05-21T11:50:45.036Z,69.91
2019-05-21T11:53:16.965Z,69.91
2019-05-21T11:55:49.022Z,69.84
2019-05-21T11:58:20.915Z,69.76
2019-05-21T12:00:52.707Z,69.71
2019-05-21T12:03:25.263Z,69.65
2019-05-21T12:05:57.005Z,69.59
2019-05-21T12:08:28.882Z,69.56
2019-05-21T12:11:00.574Z,69.54
2019-05-21T12:13:32.290Z,69.54
2019-05-21T12:16:04.131Z,69.53
2019-05-21T12:18:36.649Z,69.54
2019-05-21T12:21:08.868Z,69.49
2019-05-21T12:23:40.756Z,69.46
2019-05-21T12:26:12.921Z,69.41
2019-05-21T12:28:44.649Z,69.44
2019-05-21T12:31:16.326Z,69.41
2019-05-21T12:33:48.376Z,69.39
2019-05-21T12:36:21.698Z,69.39
2019-05-21T12:38:53.531Z,69.35
2019-05-21T12:41:25.413Z,69.35
2019-05-21T12:43:57.118Z,69.36
2019-05-21T12:46:29.070Z,69.40
2019-05-21T12:49:00.720Z,69.38
2019-05-21T12:51:32.600Z,69.46
2019-05-21T12:54:07.269Z,69.46
2019-05-21T12:56:40.860Z,69.38
2019-05-21T12:59:12.739Z,69.33
2019-05-21T13:01:44.832Z,69.36
2019-05-21T13:04:16.811Z,69.45
2019-05-21T13:06:48.613Z,69.60
2019-05-21T13:09:32.472Z,69.71
2019-05-21T13:11:53.986Z,69.84
2019-05-21T13:14:25.698Z,69.95
2019-05-21T13:16:57.435Z,70.03
2019-05-21T13:19:29.280Z,70.12
2019-05-21T13:22:01.114Z,70.25
2019-05-21T13:24:32.833Z,70.37
2019-05-21T13:27:04.826Z,70.49
2019-05-21T13:29:36.671Z,70.60
2019-05-21T13:32:08.727Z,70.63
2019-05-21T13:34:41.055Z,70.65
2019-05-21T13:37:13.007Z,70.73
2019-05-21T13:39:49.908Z,70.75
2019-05-21T13:42:18.272Z,70.78
2019-05-21T13:44:49.988Z,70.80
2019-05-21T13:52:25.196Z,70.87
2019-05-21T13:54:57.270Z,70.92
2019-05-21T13:57:29.269Z,70.96
2019-05-21T14:00:01.413Z,71.01
2019-05-21T14:02:33.620Z,71.07
2019-05-21T14:05:06.178Z,71.07
2019-05-21T14:07:37.987Z,71.07
2019-05-21T14:10:18.325Z,71.05
2019-05-21T14:12:47.089Z,71.07
2019-05-21T14:15:19.314Z,71.09
2019-05-21T14:17:51.565Z,71.12
2019-05-21T14:20:23.656Z,71.15
2019-05-21T14:22:55.664Z,71.13
2019-05-21T14:25:28.441Z,71.15
2019-05-21T14:28:00.261Z,71.18
2019-05-21T14:30:32.178Z,71.16
2019-05-21T14:33:03.960Z,71.20
2019-05-21T14:35:36.249Z,71.18
2019-05-21T14:38:07.988Z,71.19
2019-05-21T14:40:42.003Z,71.17
2019-05-21T14:43:13.758Z,71.19
2019-05-21T14:45:46.313Z,71.29
2019-05-21T14:48:18.061Z,71.33
2019-05-21T14:50:49.815Z,71.33
2019-05-21T14:53:21.534Z,71.36
2019-05-21T14:55:53.576Z,71.35
2019-05-21T14:58:25.592Z,71.33
2019-05-21T15:00:57.756Z,71.33
2019-05-21T15:03:30.509Z,71.30
2019-05-21T15:06:02.346Z,71.30
2019-05-21T15:08:34.245Z,71.32
2019-05-21T15:11:06.354Z,71.30
2019-05-21T15:13:38.214Z,71.29
2019-05-21T15:16:10.461Z,71.29
2019-05-21T15:18:42.280Z,71.30
2019-05-21T15:21:28.259Z,71.29
2019-05-21T15:24:00.051Z,71.26
2019-05-21T15:26:31.955Z,71.23
2019-05-21T15:29:04.039Z,71.24
2019-05-21T15:31:36.501Z,71.24
2019-05-21T15:34:08.407Z,71.24
2019-05-21T15:36:40.551Z,71.27
2019-05-21T15:39:12.518Z,71.25
2019-05-21T15:41:44.188Z,71.26
2019-05-21T15:44:15.948Z,71.24
2019-05-21T15:46:50.717Z,71.25
2019-05-21T15:49:35.124Z,71.29
2019-05-21T15:51:55.406Z,71.33
2019-05-21T15:54:27.302Z,71.30
2019-05-21T15:56:59.072Z,71.27
2019-05-21T15:59:30.826Z,71.27
2019-05-21T16:02:03.037Z,71.24
2019-05-21T16:04:35.048Z,71.20
2019-05-21T16:07:06.888Z,71.23
2019-05-21T16:09:38.614Z,71.24
2019-05-21T16:12:10.596Z,71.22
2019-05-21T16:14:42.520Z,71.20
2019-05-21T16:17:15.037Z,71.19
2019-05-21T16:19:47.032Z,71.15
2019-05-21T16:22:19.535Z,71.13
2019-05-21T16:24:51.962Z,71.14
2019-05-21T16:27:23.672Z,71.10
2019-05-21T16:29:55.605Z,71.11
2019-05-21T16:32:27.683Z,71.16
2019-05-21T16:35:00.878Z,71.21
2019-05-21T16:37:32.929Z,71.35
2019-05-21T16:40:04.927Z,71.45
2019-05-21T16:42:37.231Z,71.53
2019-05-21T16:45:09.500Z,71.55
2019-05-21T16:47:46.173Z,71.58
2019-05-21T16:50:17.161Z,71.62
2019-05-21T16:52:49.126Z,71.68
2019-05-21T16:55:22.142Z,71.70
2019-05-21T16:57:56.332Z,71.75
2019-05-21T17:00:28.278Z,71.75
2019-05-21T17:03:00.270Z,71.79
2019-05-21T17:05:33.128Z,71.82
2019-05-21T17:08:05.609Z,71.85
2019-05-21T17:10:37.744Z,71.86
2019-05-21T17:13:09.849Z,71.93
2019-05-21T17:15:42.072Z,71.94
2019-05-21T17:18:15.388Z,71.95
2019-05-21T17:20:47.834Z,72.00
2019-05-21T17:23:19.616Z,72.01
2019-05-21T17:25:51.689Z,72.03
2019-05-21T17:28:23.838Z,72.04
2019-05-21T17:30:55.849Z,72.06
2019-05-21T17:33:27.631Z,72.06
2019-05-21T17:36:00.323Z,72.06
2019-05-21T17:38:32.470Z,72.04
2019-05-21T17:41:04.601Z,72.08
2019-05-21T17:43:36.590Z,72.06
2019-05-21T17:46:08.675Z,72.09
2019-05-21T17:48:40.941Z,72.10
2019-05-21T17:51:13.887Z,72.07
2019-05-21T17:53:45.611Z,72.05
2019-05-21T17:56:17.563Z,72.07
2019-05-21T17:58:49.478Z,72.03
2019-05-21T18:01:22.600Z,72.03
2019-05-21T18:03:54.831Z,72.02
2019-05-21T18:06:27.496Z,72.02
2019-05-21T18:08:59.588Z,72.04
2019-05-21T18:11:31.347Z,72.05
2019-05-21T18:14:04.625Z,72.03
2019-05-21T18:16:37.094Z,72.04
2019-05-21T18:19:09.023Z,72.05
2019-05-21T18:21:41.994Z,72.05
2019-05-21T18:24:13.985Z,72.10
2019-05-21T18:26:47.794Z,72.13
2019-05-21T18:29:23.461Z,72.12
2019-05-21T18:31:57.320Z,72.14
2019-05-21T18:34:29.248Z,72.16
2019-05-21T18:37:02.061Z,72.16
2019-05-21T18:39:34.579Z,72.13
2019-05-21T18:42:20.970Z,72.10
2019-05-21T18:44:40.338Z,72.04
2019-05-21T18:47:13.383Z,72.04
2019-05-21T18:49:45.367Z,71.99
2019-05-21T18:52:17.467Z,71.99
2019-05-21T18:54:49.451Z,71.97
2019-05-21T18:57:21.781Z,71.93
2019-05-21T18:59:53.798Z,71.93
2019-05-21T19:02:25.943Z,71.95
2019-05-21T19:04:57.697Z,71.93
2019-05-21T19:07:30.008Z,71.90
2019-05-21T19:10:03.156Z,71.86
2019-05-21T19:12:38.117Z,71.82
2019-05-21T19:15:09.609Z,71.83
2019-05-21T19:17:41.773Z,71.82
2019-05-21T19:20:21.646Z,71.80
2019-05-21T19:22:54.109Z,71.80
2019-05-21T19:25:26.291Z,71.78
2019-05-21T19:27:58.296Z,71.78
2019-05-21T19:30:30.544Z,71.83
2019-05-21T19:33:02.577Z,71.81
2019-05-21T19:35:34.602Z,71.83
2019-05-21T19:38:07.014Z,71.81
2019-05-21T19:40:38.917Z,71.83
2019-05-21T19:43:10.908Z,71.83
2019-05-21T19:45:43.051Z,71.82
2019-05-21T19:48:17.598Z,71.81
2019-05-21T19:50:49.613Z,71.81
2019-05-21T19:53:21.997Z,71.81
2019-05-21T19:55:56.098Z,71.85
2019-05-21T19:58:28.011Z,71.81
2019-05-21T20:01:00.634Z,71.77
2019-05-21T20:03:32.756Z,71.79
2019-05-21T20:06:06.130Z,71.79
2019-05-21T20:08:38.268Z,71.79
2019-05-21T20:11:11.898Z,71.80
2019-05-21T20:13:43.727Z,71.81
2019-05-21T20:16:17.001Z,71.81
2019-05-21T20:18:48.887Z,71.80
2019-05-21T20:21:22.702Z,71.77
2019-05-21T20:23:54.958Z,71.73
2019-05-21T20:26:29.405Z,71.73
2019-05-21T20:29:01.420Z,71.73
2019-05-21T20:31:33.434Z,71.70
2019-05-21T20:34:07.221Z,71.70
2019-05-21T20:36:40.810Z,71.68
2019-05-21T20:39:19.238Z,71.72
2019-05-21T20:41:53.151Z,71.70
2019-05-21T20:44:24.990Z,71.73
2019-05-21T20:46:59.061Z,71.70
2019-05-21T20:49:31.460Z,71.67
2019-05-21T20:52:17.999Z,71.63
2019-05-21T20:54:39.295Z,71.61
2019-05-21T20:57:13.628Z,71.61
2019-05-21T20:59:45.706Z,71.59
2019-05-21T21:02:18.644Z,71.56
2019-05-21T21:04:50.941Z,71.48
2019-05-21T21:07:23.102Z,71.41
2019-05-21T21:09:54.998Z,71.43
2019-05-21T21:12:28.197Z,71.44
2019-05-21T21:15:00.723Z,71.46
2019-05-21T21:17:32.505Z,71.48
2019-05-21T21:20:04.652Z,71.45
2019-05-21T21:22:36.819Z,71.44
2019-05-21T21:25:10.327Z,71.43
2019-05-21T21:27:42.931Z,71.39
2019-05-21T21:30:15.531Z,71.39
2019-05-21T21:32:47.777Z,71.37
2019-05-21T21:35:19.690Z,71.37
2019-05-21T21:37:51.780Z,71.40
2019-05-21T21:40:24.923Z,71.40
2019-05-21T21:42:57.972Z,71.42
2019-05-21T21:45:29.979Z,71.46
2019-05-21T21:48:02.533Z,71.51
2019-05-21T21:50:37.401Z,71.51
2019-05-21T21:53:10.477Z,71.54
2019-05-21T21:55:45.106Z,71.58
2019-05-21T21:58:17.707Z,71.58
2019-05-21T22:01:35.161Z,71.58
2019-05-21T22:05:35.395Z,71.59
2019-05-21T22:08:07.733Z,71.56
2019-05-21T22:10:39.838Z,71.59
2019-05-21T22:13:12.968Z,71.58
2019-05-21T22:15:45.473Z,71.58
2019-05-21T22:18:18.035Z,71.59
2019-05-21T22:20:50.391Z,71.61
2019-05-21T22:23:23.303Z,71.63
2019-05-21T22:25:55.096Z,71.64
2019-05-21T22:28:27.002Z,71.62
2019-05-21T22:31:03.611Z,71.66
2019-05-21T22:33:36.181Z,71.63
2019-05-21T22:36:08.124Z,71.63
2019-05-21T22:38:40.102Z,71.63
2019-05-21T22:41:12.124Z,71.64
2019-05-21T22:43:44.147Z,71.67
2019-05-21T22:46:16.324Z,71.62
2019-05-21T22:48:48.085Z,71.62
2019-05-21T22:51:20.016Z,71.66
2019-05-21T22:53:51.825Z,71.66
2019-05-21T22:56:23.513Z,71.67
2019-05-21T22:58:55.318Z,71.69
2019-05-21T23:01:29.612Z,71.68
2019-05-21T23:04:01.764Z,71.67
2019-05-21T23:06:33.676Z,71.67
2019-05-21T23:09:07.870Z,71.66
2019-05-21T23:11:39.578Z,71.69
2019-05-21T23:14:11.677Z,71.69
2019-05-21T23:16:44.439Z,71.67
2019-05-21T23:19:18.161Z,71.71
2019-05-21T23:21:51.868Z,71.74
2019-05-21T23:24:24.883Z,71.75
2019-05-21T23:26:57.096Z,71.74
2019-05-21T23:29:29.270Z,71.73
2019-05-21T23:32:01.452Z,71.72
2019-05-21T23:34:34.170Z,71.73
2019-05-21T23:37:07.943Z,71.69
2019-05-21T23:39:40.886Z,71.64
2019-05-21T23:42:28.336Z,71.61
2019-05-21T23:44:47.114Z,71.60
2019-05-21T23:47:48.454Z,71.58
2019-05-21T23:50:21.101Z,71.55
2019-05-21T23:52:54.233Z,71.51
2019-05-21T23:55:26.020Z,71.51
2019-05-21T23:57:57.869Z,71.54
